Time;durP1;ratioP1;P1;durP2;ratioP2;P2;SDS_P1;SDS_P2;PMS_P1;PMS_P2;Temp;Humidity;BMP_temperature;BMP_pressure;BME280_temperature;BME280_humidity;BME280_pressure;Samples;Min_cycle;Max_cycle;Signal;HPM_P1;HPM_P2
2022/05/29 00:00:16;;;;;;;9.10;2.00;;;11.60;64.10;;;;;;9185778;19;20475;-67
2022/05/29 00:03:25;;;;;;;14.98;2.50;;;11.60;64.10;;;;;;9185899;19;20022;-67
2022/05/29 00:06:40;;;;;;;12.35;2.47;;;11.60;64.10;;;;;;9185726;19;20034;-67
2022/05/29 00:09:47;;;;;;;14.43;2.15;;;11.60;64.30;;;;;;9187181;19;20010;-66
2022/05/29 00:12:52;;;;;;;18.10;3.00;;;11.60;64.20;;;;;;9186936;19;20052;-67
2022/05/29 00:15:59;;;;;;;12.77;2.67;;;11.60;64.30;;;;;;9186944;19;20349;-67
2022/05/29 00:19:04;;;;;;;8.82;2.40;;;11.60;64.40;;;;;;9186646;19;20022;-67
2022/05/29 00:22:16;;;;;;;18.05;2.75;;;11.60;64.40;;;;;;9181779;19;20025;-67
2022/05/29 00:25:21;;;;;;;7.60;1.88;;;11.60;64.50;;;;;;9185427;19;20015;-67
2022/05/29 00:28:26;;;;;;;13.82;3.33;;;11.60;64.50;;;;;;9185194;19;20010;-67
2022/05/29 00:31:31;;;;;;;11.07;2.28;;;11.60;64.60;;;;;;9185119;19;20009;-67
2022/05/29 00:34:37;;;;;;;10.55;2.22;;;11.50;64.60;;;;;;9184129;19;20010;-66
2022/05/29 00:37:47;;;;;;;12.07;2.35;;;11.50;64.60;;;;;;9182309;19;20014;-69
2022/05/29 00:40:58;;;;;;;12.57;2.30;;;11.50;64.80;;;;;;9183810;19;20015;-67
2022/05/29 00:44:13;;;;;;;14.02;2.75;;;11.50;64.90;;;;;;9182748;19;20022;-66
2022/05/29 00:47:20;;;;;;;14.00;2.97;;;11.50;65.10;;;;;;9183856;19;20007;-67
2022/05/29 00:50:26;;;;;;;11.55;2.15;;;11.50;65.00;;;;;;9187078;19;20014;-67
2022/05/29 00:53:37;;;;;;;10.52;2.22;;;11.50;65.00;;;;;;9185820;19;20535;-66
2022/05/29 00:56:42;;;;;;;8.10;2.15;;;11.50;65.20;;;;;;9182189;19;20521;-67
2022/05/29 00:59:48;;;;;;;5.85;2.13;;;11.50;65.20;;;;;;9185287;19;20006;-66
2022/05/29 01:02:54;;;;;;;11.57;2.38;;;11.50;65.20;;;;;;9183731;19;20022;-67
2022/05/29 01:05:59;;;;;;;10.50;1.95;;;11.50;65.30;;;;;;9185802;19;20010;-67
2022/05/29 01:09:10;;;;;;;9.05;2.50;;;11.50;65.40;;;;;;9181322;19;20018;-66
2022/05/29 01:12:26;;;;;;;12.38;2.47;;;11.50;65.70;;;;;;9183598;19;20399;-67
2022/05/29 01:15:39;;;;;;;8.70;2.35;;;11.50;65.80;;;;;;9184038;19;20030;-67
2022/05/29 01:18:55;;;;;;;8.00;2.10;;;11.50;65.90;;;;;;9184988;19;20501;-68
2022/05/29 01:22:16;;;;;;;6.78;2.55;;;11.60;66.00;;;;;;9179064;19;20011;-67
2022/05/29 01:25:54;;;;;;;9.40;2.10;;;11.60;66.20;;;;;;9183344;19;20484;-68
2022/05/29 01:29:03;;;;;;;9.90;2.40;;;11.60;66.20;;;;;;9182361;19;20018;-68
2022/05/29 01:32:16;;;;;;;9.90;2.33;;;11.60;66.00;;;;;;9181511;19;20026;-67
2022/05/29 01:35:26;;;;;;;11.50;2.30;;;11.60;66.10;;;;;;9182208;19;20014;-67
2022/05/29 01:38:38;;;;;;;10.80;3.42;;;11.60;66.30;;;;;;9180142;19;20010;-67
2022/05/29 01:41:56;;;;;;;9.32;2.15;;;11.60;66.30;;;;;;9184267;19;20021;-68
2022/05/29 01:45:09;;;;;;;6.65;2.10;;;11.60;66.50;;;;;;9182586;19;20356;-66
2022/05/29 01:48:18;;;;;;;6.83;2.37;;;11.60;66.50;;;;;;9181118;19;20022;-66
2022/05/29 01:51:26;;;;;;;12.05;2.80;;;11.60;66.40;;;;;;9182377;19;20014;-67
2022/05/29 01:54:34;;;;;;;12.63;2.28;;;11.70;66.50;;;;;;9183259;19;20018;-66
2022/05/29 01:57:43;;;;;;;10.25;2.95;;;11.70;66.60;;;;;;9180982;19;20802;-68
2022/05/29 02:00:54;;;;;;;6.88;2.70;;;11.70;66.60;;;;;;9181501;19;20019;-68
2022/05/29 02:04:05;;;;;;;5.50;1.98;;;11.70;66.70;;;;;;9182066;19;20007;-68
2022/05/29 02:10:37;;;;;;;7.32;2.20;;;11.70;66.80;;;;;;9181445;19;20038;-68
2022/05/29 02:13:47;;;;;;;7.43;2.13;;;11.70;66.80;;;;;;9180932;19;20523;-67
2022/05/29 02:17:00;;;;;;;6.38;2.05;;;11.70;66.90;;;;;;9181794;19;20376;-68
2022/05/29 02:20:10;;;;;;;6.13;1.90;;;11.70;67.00;;;;;;9181059;19;20015;-67
2022/05/29 02:23:21;;;;;;;7.50;2.00;;;11.70;67.00;;;;;;9177492;19;20457;-66
2022/05/29 02:26:30;;;;;;;10.68;2.30;;;11.80;67.10;;;;;;9179068;19;20487;-68
2022/05/29 02:29:36;;;;;;;7.88;2.45;;;11.80;67.10;;;;;;9181575;19;20014;-67
2022/05/29 02:32:55;;;;;;;18.00;2.70;;;11.80;67.20;;;;;;9181920;19;20007;-66
2022/05/29 02:36:23;;;;;;;16.27;2.88;;;11.80;67.50;;;;;;9182231;19;20376;-68
2022/05/29 02:39:44;;;;;;;5.07;1.92;;;11.80;67.50;;;;;;9182404;19;20026;-67
2022/05/29 02:43:00;;;;;;;10.93;2.28;;;11.80;67.40;;;;;;9180395;19;20074;-68
2022/05/29 02:46:15;;;;;;;13.32;2.28;;;11.80;67.50;;;;;;9179079;19;20022;-67
2022/05/29 02:49:31;;;;;;;8.55;2.45;;;11.80;67.40;;;;;;9180075;19;20023;-66
2022/05/29 02:52:36;;;;;;;8.40;2.20;;;11.80;67.60;;;;;;9179363;19;20017;-67
2022/05/29 02:55:43;;;;;;;9.50;2.38;;;11.80;67.40;;;;;;9180296;19;20017;-66
2022/05/29 02:58:53;;;;;;;6.65;2.40;;;11.80;67.50;;;;;;9176611;19;20011;-67
2022/05/29 03:02:08;;;;;;;6.53;2.13;;;11.80;67.60;;;;;;9180497;19;20082;-68
2022/05/29 03:05:26;;;;;;;10.82;2.20;;;11.80;67.70;;;;;;9181027;19;20344;-66
2022/05/29 03:08:43;;;;;;;16.33;4.50;;;11.80;67.90;;;;;;9183575;19;20411;-67
2022/05/29 03:11:49;;;;;;;9.27;2.63;;;11.80;67.80;;;;;;9188064;19;20019;-67
2022/05/29 03:15:09;;;;;;;6.55;2.20;;;11.80;67.70;;;;;;9187786;19;20013;-66
2022/05/29 03:18:25;;;;;;;7.30;2.67;;;11.80;68.10;;;;;;9185603;19;20023;-67
2022/05/29 03:21:39;;;;;;;8.90;2.20;;;11.70;68.10;;;;;;9182542;19;20019;-68
2022/05/29 03:24:50;;;;;;;9.02;2.55;;;11.70;68.00;;;;;;9189622;19;20018;-67
2022/05/29 03:27:57;;;;;;;9.20;2.97;;;11.70;68.00;;;;;;9187308;19;20044;-67
2022/05/29 03:31:06;;;;;;;5.43;2.42;;;11.80;68.00;;;;;;9189395;19;20648;-67
2022/05/29 03:34:12;;;;;;;12.60;2.80;;;11.70;68.10;;;;;;9186963;19;20375;-68
2022/05/29 03:37:21;;;;;;;8.60;2.33;;;11.70;68.10;;;;;;9185981;19;20610;-67
2022/05/29 03:40:28;;;;;;;10.98;2.97;;;11.70;68.20;;;;;;9187374;19;20015;-67
2022/05/29 03:43:33;;;;;;;7.35;2.63;;;11.70;68.30;;;;;;9188535;19;20353;-67
2022/05/29 03:46:39;;;;;;;8.55;2.45;;;11.70;68.40;;;;;;9186552;19;20010;-68
2022/05/29 03:49:44;;;;;;;5.32;2.17;;;11.70;68.50;;;;;;9186401;19;20052;-69
2022/05/29 03:52:52;;;;;;;12.82;2.50;;;11.70;68.60;;;;;;9188764;19;20044;-67
2022/05/29 03:55:57;;;;;;;6.68;2.65;;;11.70;68.70;;;;;;9186448;19;20019;-67
2022/05/29 03:59:03;;;;;;;14.07;2.85;;;11.80;68.80;;;;;;9185338;19;20472;-68
2022/05/29 04:02:08;;;;;;;9.63;2.75;;;11.80;68.90;;;;;;9188657;19;20314;-68
2022/05/29 04:05:14;;;;;;;10.93;2.53;;;11.80;68.90;;;;;;9185958;19;20014;-68
2022/05/29 04:15:00;;;;;;;10.65;3.05;;;11.80;69.10;;;;;;9185133;19;20015;-68
2022/05/29 04:18:06;;;;;;;11.93;2.55;;;11.80;69.10;;;;;;9182648;19;20014;-67
2022/05/29 04:21:11;;;;;;;9.60;3.05;;;11.80;69.30;;;;;;9181825;19;20037;-69
2022/05/29 04:24:21;;;;;;;5.47;2.30;;;11.80;69.30;;;;;;9186417;19;20013;-68
2022/05/29 04:27:26;;;;;;;10.35;2.50;;;11.90;69.50;;;;;;9185576;19;20029;-69
2022/05/29 04:30:32;;;;;;;10.27;2.92;;;11.90;69.50;;;;;;9185512;19;20086;-67
2022/05/29 04:33:40;;;;;;;9.52;2.05;;;11.90;69.50;;;;;;9185753;19;20015;-69
2022/05/29 04:36:45;;;;;;;10.70;2.10;;;11.90;69.50;;;;;;9185633;19;20022;-68
2022/05/29 04:39:53;;;;;;;7.85;2.42;;;11.90;69.60;;;;;;9184468;19;20022;-67
2022/05/29 04:43:00;;;;;;;11.15;2.45;;;11.90;69.70;;;;;;9184111;19;20482;-70
2022/05/29 04:46:06;;;;;;;13.27;2.53;;;11.90;69.70;;;;;;9184964;19;20018;-69
2022/05/29 04:49:11;;;;;;;15.13;2.70;;;11.90;69.70;;;;;;9183765;19;20015;-68
2022/05/29 04:52:16;;;;;;;9.65;2.55;;;11.90;69.70;;;;;;9183670;19;20018;-68
2022/05/29 04:55:24;;;;;;;10.40;2.97;;;12.00;69.80;;;;;;9184011;19;20014;-67
2022/05/29 04:58:30;;;;;;;9.43;2.38;;;12.00;70.00;;;;;;9183068;19;20018;-68
2022/05/29 05:01:35;;;;;;;17.17;3.10;;;12.00;70.00;;;;;;9186236;19;20113;-69
2022/05/29 05:04:40;;;;;;;8.98;2.60;;;12.00;70.00;;;;;;9183089;19;20011;-68
2022/05/29 05:07:45;;;;;;;9.00;2.38;;;12.00;70.10;;;;;;9183825;19;20317;-68
2022/05/29 05:10:53;;;;;;;10.15;2.80;;;11.90;70.00;;;;;;9182539;19;20381;-69
2022/05/29 05:13:59;;;;;;;17.88;3.42;;;12.00;70.20;;;;;;9182457;19;20087;-68
2022/05/29 05:17:05;;;;;;;11.07;2.67;;;12.00;70.20;;;;;;9184579;19;20107;-68
2022/05/29 05:20:12;;;;;;;14.50;2.60;;;12.00;70.30;;;;;;9180927;19;20443;-68
2022/05/29 05:23:17;;;;;;;7.32;2.55;;;12.00;70.20;;;;;;9180524;19;20014;-68
2022/05/29 05:26:25;;;;;;;13.23;2.88;;;12.10;70.30;;;;;;9184875;19;20086;-68
2022/05/29 05:29:30;;;;;;;13.05;3.13;;;12.10;70.40;;;;;;9184161;19;20120;-68
2022/05/29 05:32:35;;;;;;;14.75;2.78;;;12.10;70.40;;;;;;9182977;19;20085;-69
2022/05/29 05:35:40;;;;;;;9.63;2.13;;;12.10;70.40;;;;;;9182032;19;20082;-67
2022/05/29 05:38:45;;;;;;;13.85;2.70;;;12.20;70.50;;;;;;9181940;19;20365;-68
2022/05/29 05:41:54;;;;;;;16.05;2.63;;;12.20;70.60;;;;;;9181810;19;20019;-68
2022/05/29 05:45:00;;;;;;;9.80;3.33;;;12.30;70.70;;;;;;9181911;19;20022;-68
2022/05/29 05:48:07;;;;;;;12.90;2.63;;;12.20;70.50;;;;;;9182998;19;20026;-69
2022/05/29 05:51:13;;;;;;;11.38;3.40;;;12.30;70.60;;;;;;9182232;19;20400;-70
2022/05/29 05:54:20;;;;;;;11.57;3.40;;;12.30;70.60;;;;;;9183143;19;20009;-69
2022/05/29 05:57:28;;;;;;;15.02;3.08;;;12.30;70.70;;;;;;9181406;19;20017;-68
2022/05/29 06:00:33;;;;;;;14.30;2.80;;;12.40;70.90;;;;;;9178921;19;20022;-70
2022/05/29 06:03:40;;;;;;;8.88;2.35;;;12.50;70.80;;;;;;9181357;19;20014;-69
2022/05/29 06:06:45;;;;;;;8.27;2.33;;;12.50;70.70;;;;;;9180324;19;20468;-69
2022/05/29 06:09:50;;;;;;;15.98;2.92;;;12.60;70.70;;;;;;9179449;19;20078;-69
2022/05/29 06:13:02;;;;;;;7.53;2.85;;;12.60;70.70;;;;;;9182801;19;20509;-69
2022/05/29 06:16:12;;;;;;;11.45;2.75;;;12.60;70.70;;;;;;9181982;19;20330;-70
2022/05/29 06:19:18;;;;;;;18.48;2.83;;;12.70;70.60;;;;;;9178860;19;20011;-69
2022/05/29 06:22:23;;;;;;;16.58;3.70;;;12.70;70.60;;;;;;9177170;19;20022;-69
2022/05/29 06:25:29;;;;;;;10.98;2.58;;;12.80;70.60;;;;;;9180023;19;20014;-69
2022/05/29 06:28:37;;;;;;;9.60;2.17;;;12.80;70.50;;;;;;9179326;19;20014;-69
2022/05/29 06:31:43;;;;;;;13.73;2.35;;;12.80;70.60;;;;;;9179656;19;20064;-69
2022/05/29 06:34:49;;;;;;;8.18;2.45;;;12.90;70.60;;;;;;9179108;19;20344;-69
2022/05/29 06:37:54;;;;;;;12.40;2.05;;;12.90;70.50;;;;;;9180645;19;20014;-70
2022/05/29 06:40:59;;;;;;;12.60;2.25;;;13.00;70.50;;;;;;9178203;19;20010;-69
2022/05/29 06:44:07;;;;;;;16.85;3.00;;;13.00;70.50;;;;;;9191876;19;20086;-70
2022/05/29 06:47:14;;;;;;;14.32;2.67;;;13.10;70.50;;;;;;9191009;19;20364;-68
2022/05/29 06:50:19;;;;;;;10.95;2.92;;;13.10;70.40;;;;;;9188774;19;20022;-67
2022/05/29 06:53:25;;;;;;;8.60;2.20;;;13.20;70.50;;;;;;9192265;19;20006;-69
2022/05/29 06:56:30;;;;;;;10.05;2.22;;;13.20;70.40;;;;;;9188624;19;20103;-69
2022/05/29 07:06:59;;;;;;;9.90;1.90;;;13.30;70.30;;;;;;9185162;19;20019;-69
2022/05/29 07:09:46;;;;;;;16.52;2.35;;;13.40;70.10;;;;;;9185083;19;20018;-71
2022/05/29 07:12:52;;;;;;;12.73;2.65;;;13.50;70.10;;;;;;9183343;19;20825;-70
2022/05/29 07:15:59;;;;;;;10.07;2.17;;;13.50;70.00;;;;;;9180954;19;20384;-71
2022/05/29 07:19:05;;;;;;;20.58;3.63;;;13.60;70.10;;;;;;9180364;19;20048;-69
2022/05/29 07:22:14;;;;;;;11.90;2.20;;;13.60;70.00;;;;;;9174536;19;20140;-70
2022/05/29 07:25:19;;;;;;;10.82;2.22;;;13.70;70.00;;;;;;9182575;19;20014;-71
2022/05/29 07:28:27;;;;;;;7.00;1.83;;;13.80;70.00;;;;;;9178322;19;20019;-70
2022/05/29 07:31:35;;;;;;;17.90;3.92;;;13.90;69.80;;;;;;9184171;19;20342;-70
2022/05/29 07:34:43;;;;;;;13.57;2.60;;;13.90;69.60;;;;;;9184544;19;20476;-70
2022/05/29 07:37:50;;;;;;;14.00;2.70;;;14.00;69.50;;;;;;9181309;19;20053;-71
2022/05/29 07:40:55;;;;;;;13.77;2.75;;;14.00;69.40;;;;;;9177291;19;20475;-71
2022/05/29 07:43:59;;;;;;;7.63;1.92;;;14.10;69.30;;;;;;9180869;19;20481;-71
2022/05/29 07:47:07;;;;;;;15.52;2.40;;;14.20;69.20;;;;;;9180975;19;20010;-71
2022/05/29 07:50:15;;;;;;;14.73;1.83;;;14.20;69.10;;;;;;9180812;19;20387;-74
2022/05/29 07:53:20;;;;;;;5.55;1.60;;;14.20;68.90;;;;;;9180891;19;20007;-71
2022/05/29 07:56:28;;;;;;;10.77;1.45;;;14.30;69.00;;;;;;9183707;19;20030;-71
2022/05/29 07:59:34;;;;;;;13.45;3.10;;;14.30;68.90;;;;;;9182110;19;20553;-69
2022/05/29 08:02:47;;;;;;;10.07;1.98;;;14.30;69.50;;;;;;9187857;19;20391;-74
2022/05/29 08:05:54;;;;;;;8.77;2.10;;;14.40;68.70;;;;;;9191864;19;20017;-71
2022/05/29 08:08:59;;;;;;;15.63;1.95;;;14.40;68.60;;;;;;9188672;19;20015;-70
2022/05/29 08:12:05;;;;;;;11.25;2.15;;;14.40;68.60;;;;;;9188160;19;20021;-73
2022/05/29 08:15:18;;;;;;;8.95;1.40;;;14.40;68.40;;;;;;9188840;19;20022;-73
2022/05/29 08:18:26;;;;;;;5.55;1.23;;;14.40;68.30;;;;;;9186400;19;20011;-73
2022/05/29 08:21:31;;;;;;;10.68;1.92;;;14.40;68.20;;;;;;9178569;19;20022;-73
2022/05/29 08:31:19;;;;;;;12.68;1.10;;;14.20;68.20;;;;;;9187390;19;20085;-74
2022/05/29 08:34:27;;;;;;;16.70;1.70;;;14.20;68.30;;;;;;9190079;19;20032;-73
2022/05/29 08:37:39;;;;;;;7.82;1.98;;;14.10;68.30;;;;;;9189871;19;20011;-73
2022/05/29 08:40:49;;;;;;;17.42;2.08;;;14.00;68.40;;;;;;9190096;19;20014;-73
2022/05/29 08:44:07;;;;;;;10.85;1.80;;;14.00;68.40;;;;;;9193845;19;20015;-73
2022/05/29 08:47:12;;;;;;;12.88;2.05;;;14.00;68.50;;;;;;9193671;19;20015;-72
2022/05/29 08:50:25;;;;;;;20.02;2.30;;;14.00;68.50;;;;;;9194442;19;20810;-72
2022/05/29 08:53:38;;;;;;;17.13;2.88;;;13.90;68.40;;;;;;9195069;19;20010;-74
2022/05/29 08:56:53;;;;;;;14.52;2.30;;;13.90;68.40;;;;;;9190279;19;20033;-72
2022/05/29 09:00:00;;;;;;;9.20;1.60;;;14.00;68.40;;;;;;9186994;19;20014;-74
2022/05/29 09:03:30;;;;;;;9.65;1.48;;;14.00;68.90;;;;;;9187618;19;20011;-74
2022/05/29 09:06:42;;;;;;;17.60;3.22;;;14.00;68.20;;;;;;9185531;19;20030;-74
2022/05/29 09:09:53;;;;;;;12.23;2.67;;;14.00;68.10;;;;;;9184887;19;20010;-75
2022/05/29 09:13:00;;;;;;;8.77;1.27;;;14.10;68.00;;;;;;9184097;19;20014;-72
2022/05/29 09:16:11;;;;;;;5.50;1.75;;;14.10;68.00;;;;;;9183387;19;20019;-74
2022/05/29 09:19:30;;;;;;;7.75;1.77;;;14.10;67.80;;;;;;9184158;19;20014;-74
2022/05/29 09:22:40;;;;;;;7.90;2.00;;;14.20;67.60;;;;;;9180029;19;20026;-74
2022/05/29 09:25:46;;;;;;;8.50;1.50;;;14.20;67.60;;;;;;9183175;19;20022;-72
2022/05/29 09:28:52;;;;;;;9.07;1.60;;;14.20;67.50;;;;;;9183116;19;20100;-74
2022/05/29 09:31:57;;;;;;;8.00;1.48;;;14.30;67.40;;;;;;9183622;19;20363;-72
2022/05/29 09:35:09;;;;;;;11.80;1.90;;;14.30;67.10;;;;;;9183790;19;20018;-74
2022/05/29 09:38:28;;;;;;;11.75;2.00;;;14.30;66.90;;;;;;9184362;19;20018;-74
2022/05/29 09:41:37;;;;;;;8.23;1.45;;;14.30;67.20;;;;;;9183271;19;20128;-73
2022/05/29 09:45:12;;;;;;;8.98;2.17;;;14.30;66.60;;;;;;9184652;19;20015;-72
2022/05/29 09:51:52;;;;;;;11.30;2.10;;;14.40;66.20;;;;;;9183959;19;20018;-72
2022/05/29 09:55:07;;;;;;;7.85;1.70;;;14.40;66.30;;;;;;9183304;19;20021;-76
2022/05/29 09:58:31;;;;;;;10.90;1.95;;;14.50;66.20;;;;;;9184234;19;20038;-74
2022/05/29 10:01:40;;;;;;;10.75;1.77;;;14.50;66.20;;;;;;9181200;19;20021;-74
2022/05/29 10:04:45;;;;;;;11.35;1.88;;;14.50;66.20;;;;;;9181574;19;20011;-73
2022/05/29 10:07:57;;;;;;;9.73;1.80;;;14.50;66.10;;;;;;9180395;19;20018;-75
2022/05/29 10:11:20;;;;;;;10.65;2.45;;;14.50;66.00;;;;;;9183540;19;20464;-73
2022/05/29 10:14:41;;;;;;;14.32;1.48;;;14.50;65.90;;;;;;9180727;19;20074;-73
2022/05/29 10:17:46;;;;;;;5.88;0.98;;;14.50;65.90;;;;;;9178803;19;20007;-74
2022/05/29 10:20:55;;;;;;;9.25;1.65;;;14.50;66.10;;;;;;9176027;19;20015;-75
2022/05/29 10:24:15;;;;;;;7.70;1.92;;;14.40;66.10;;;;;;9180734;19;20044;-70
2022/05/29 10:27:33;;;;;;;7.43;1.60;;;14.40;66.10;;;;;;9182199;19;20015;-71
2022/05/29 10:30:45;;;;;;;9.93;1.45;;;14.40;66.10;;;;;;9180983;19;20019;-72
2022/05/29 10:34:07;;;;;;;6.47;1.70;;;14.30;66.20;;;;;;9183347;19;20460;-73
2022/05/29 10:37:29;;;;;;;8.30;1.80;;;14.30;66.10;;;;;;9182456;19;20014;-75
2022/05/29 10:40:35;;;;;;;16.52;5.53;;;14.30;66.00;;;;;;9181955;19;20014;-77
2022/05/29 10:43:50;;;;;;;12.52;3.05;;;14.30;66.10;;;;;;9182143;19;20029;-73
2022/05/29 10:47:05;;;;;;;11.00;2.65;;;14.30;66.00;;;;;;9181564;19;20013;-75
2022/05/29 10:50:17;;;;;;;5.22;1.42;;;14.30;66.00;;;;;;9182027;19;20018;-71
2022/05/29 10:53:48;;;;;;;5.75;1.33;;;14.40;66.00;;;;;;9179329;19;20019;-72
2022/05/29 10:57:13;;;;;;;7.45;1.45;;;14.40;66.00;;;;;;9180038;19;20010;-74
2022/05/29 11:00:33;;;;;;;5.03;1.13;;;14.60;65.90;;;;;;9180124;19;20015;-74
2022/05/29 11:04:03;;;;;;;4.07;1.30;;;14.70;65.90;;;;;;9183434;19;20011;-74
2022/05/29 11:07:36;;;;;;;5.88;0.90;;;14.80;65.80;;;;;;9180957;19;20364;-73
2022/05/29 11:11:01;;;;;;;6.97;1.08;;;15.00;65.70;;;;;;9181988;19;20018;-74
2022/05/29 11:14:34;;;;;;;5.57;1.50;;;15.10;65.40;;;;;;9180929;19;20025;-73
2022/05/29 11:17:52;;;;;;;6.50;1.40;;;15.30;65.30;;;;;;9180468;19;20018;-75
2022/05/29 11:21:04;;;;;;;8.63;1.27;;;15.40;65.10;;;;;;9177797;19;20366;-73
2022/05/29 11:24:37;;;;;;;7.18;1.30;;;15.50;65.00;;;;;;9181358;19;20048;-76
2022/05/29 11:27:59;;;;;;;2.90;1.20;;;15.50;64.80;;;;;;9180587;19;20044;-73
2022/05/29 11:31:20;;;;;;;8.52;1.35;;;15.60;64.70;;;;;;9189844;19;20373;-75
2022/05/29 11:34:35;;;;;;;7.15;0.93;;;15.60;64.50;;;;;;9187038;19;20674;-73
2022/05/29 11:38:02;;;;;;;3.88;1.30;;;15.60;64.50;;;;;;9186809;19;20022;-73
2022/05/29 11:41:12;;;;;;;5.57;1.17;;;15.60;64.40;;;;;;9191101;19;20064;-73
2022/05/29 11:44:25;;;;;;;4.35;0.82;;;15.70;64.50;;;;;;9191608;19;20022;-74
2022/05/29 11:51:15;;;;;;;4.50;0.90;;;15.60;64.20;;;;;;9189881;19;20393;-73
2022/05/29 11:54:28;;;;;;;3.83;0.57;;;15.70;64.20;;;;;;9188865;19;20039;-74
2022/05/29 11:57:39;;;;;;;4.32;0.90;;;15.70;64.20;;;;;;9188000;19;20021;-73
2022/05/29 12:00:55;;;;;;;8.80;0.90;;;15.70;64.00;;;;;;9190745;19;20048;-75
2022/05/29 12:04:08;;;;;;;4.22;0.90;;;15.80;64.00;;;;;;9186740;19;20044;-73
2022/05/29 12:07:22;;;;;;;7.27;0.90;;;15.80;63.90;;;;;;9185988;19;20014;-72
2022/05/29 12:10:32;;;;;;;4.05;0.75;;;15.90;63.90;;;;;;9188769;19;20017;-72
2022/05/29 12:13:41;;;;;;;3.08;1.00;;;15.90;63.80;;;;;;9190942;19;20019;-73
2022/05/29 12:16:50;;;;;;;2.65;0.80;;;16.00;63.70;;;;;;9190728;19;20011;-74
2022/05/29 12:20:04;;;;;;;2.63;0.80;;;16.10;63.60;;;;;;9189197;19;20017;-73
2022/05/29 12:23:24;;;;;;;10.95;1.48;;;16.20;63.40;;;;;;9180800;19;20070;-74
2022/05/29 12:26:38;;;;;;;4.65;1.23;;;16.20;63.20;;;;;;9187698;19;20080;-73
2022/05/29 12:29:50;;;;;;;5.53;0.85;;;16.30;63.20;;;;;;9187269;19;20015;-74
2022/05/29 12:32:55;;;;;;;12.27;1.85;;;16.30;63.10;;;;;;9190293;19;20014;-74
2022/05/29 12:36:11;;;;;;;5.78;1.00;;;16.40;63.10;;;;;;9185288;19;20483;-74
2022/05/29 12:39:33;;;;;;;6.25;1.30;;;16.50;63.60;;;;;;9186112;19;20015;-73
2022/05/29 12:43:04;;;;;;;9.63;2.45;;;16.50;62.90;;;;;;9185091;19;20375;-75
2022/05/29 12:46:39;;;;;;;5.18;1.20;;;16.50;62.80;;;;;;9187187;19;20010;-74
2022/05/29 12:50:08;;;;;;;1.40;0.75;;;16.50;62.50;;;;;;9187622;19;20484;-72
2022/05/29 12:53:40;;;;;;;6.22;0.93;;;16.50;62.30;;;;;;9184608;19;20077;-74
2022/05/29 12:57:15;;;;;;;3.08;0.95;;;16.60;62.00;;;;;;9185256;19;20029;-73
2022/05/29 13:00:48;;;;;;;4.60;1.08;;;16.50;61.80;;;;;;9185570;19;20035;-72
2022/05/29 13:04:28;;;;;;;6.95;1.33;;;16.50;61.70;;;;;;9183979;19;20022;-73
2022/05/29 13:07:54;;;;;;;3.47;0.85;;;16.50;61.70;;;;;;9182693;19;20086;-70
2022/05/29 13:11:03;;;;;;;7.03;0.80;;;16.50;61.70;;;;;;9183282;19;20022;-73
2022/05/29 13:14:11;;;;;;;4.93;0.95;;;16.50;61.80;;;;;;9183795;19;20108;-71
2022/05/29 13:17:27;;;;;;;12.20;1.20;;;16.40;61.70;;;;;;9184978;19;20353;-74
2022/05/29 13:20:32;;;;;;;7.18;0.90;;;16.40;61.60;;;;;;9184577;19;20018;-71
2022/05/29 13:23:40;;;;;;;4.93;1.25;;;16.40;61.80;;;;;;9183285;19;20115;-74
2022/05/29 13:26:45;;;;;;;6.68;1.30;;;16.40;61.70;;;;;;9185836;19;20022;-73
2022/05/29 13:29:55;;;;;;;7.75;1.33;;;16.40;61.70;;;;;;9182620;19;20029;-71
2022/05/29 13:33:30;;;;;;;3.20;1.02;;;16.50;61.70;;;;;;9182367;19;20029;-72
2022/05/29 13:37:05;;;;;;;7.25;0.90;;;16.50;61.40;;;;;;9184420;19;20018;-72
2022/05/29 13:40:45;;;;;;;5.93;0.90;;;16.50;61.40;;;;;;9181566;19;20026;-73
2022/05/29 13:43:50;;;;;;;11.38;1.58;;;16.50;61.30;;;;;;9179724;19;20014;-74
2022/05/29 13:47:42;;;;;;;8.95;1.25;;;16.50;61.40;;;;;;9184025;19;20014;-73
2022/05/29 13:50:54;;;;;;;10.00;1.35;;;16.40;61.10;;;;;;9180422;19;20018;-72
2022/05/29 13:54:03;;;;;;;4.90;1.23;;;16.30;61.20;;;;;;9181524;19;20018;-72
2022/05/29 13:57:11;;;;;;;8.55;1.35;;;16.30;61.30;;;;;;9181317;19;20364;-70
2022/05/29 14:04:03;;;;;;;4.32;1.25;;;16.10;61.40;;;;;;9179980;19;20033;-72
2022/05/29 14:07:31;;;;;;;5.22;1.13;;;16.00;61.40;;;;;;9181635;19;20019;-73
2022/05/29 14:10:49;;;;;;;10.32;1.42;;;16.00;61.60;;;;;;9180542;19;20014;-73
2022/05/29 14:13:58;;;;;;;2.83;1.00;;;15.90;61.50;;;;;;9181341;19;20356;-74
2022/05/29 14:17:12;;;;;;;8.88;1.08;;;15.90;61.70;;;;;;9182379;19;20471;-71
2022/05/29 14:20:33;;;;;;;6.18;1.15;;;15.80;61.50;;;;;;9183283;19;20021;-73
2022/05/29 14:23:52;;;;;;;11.95;1.23;;;15.90;61.40;;;;;;9180748;19;20010;-73
2022/05/29 14:27:14;;;;;;;7.45;1.05;;;15.80;61.30;;;;;;9180681;19;20338;-73
2022/05/29 14:30:30;;;;;;;6.05;0.98;;;15.80;61.40;;;;;;9179654;19;20020;-72
2022/05/29 14:33:56;;;;;;;8.82;1.02;;;15.80;61.40;;;;;;9181966;19;20036;-71
2022/05/29 14:37:59;;;;;;;2.85;0.82;;;15.80;61.30;;;;;;9180857;19;20078;-72
2022/05/29 14:41:16;;;;;;;6.35;1.25;;;15.80;61.10;;;;;;9180477;19;20031;-71
2022/05/29 14:44:30;;;;;;;6.13;1.65;;;15.90;61.20;;;;;;9177577;19;20089;-70
2022/05/29 14:47:42;;;;;;;7.75;1.58;;;15.90;61.10;;;;;;9180088;19;20010;-72
2022/05/29 14:50:52;;;;;;;10.25;1.30;;;15.80;61.10;;;;;;9181730;19;20011;-71
2022/05/29 14:54:02;;;;;;;4.25;1.35;;;15.80;61.10;;;;;;9180212;19;20006;-67
2022/05/29 14:57:26;;;;;;;8.27;1.73;;;15.90;61.10;;;;;;9181305;19;20074;-73
2022/05/29 15:00:35;;;;;;;6.60;1.42;;;15.90;61.00;;;;;;9179777;19;20078;-74
2022/05/29 15:03:43;;;;;;;8.73;1.48;;;15.90;61.10;;;;;;9184443;19;20014;-73
2022/05/29 15:17:01;;;;;;;9.32;1.55;;;15.80;61.20;;;;;;9189512;19;20384;-73
2022/05/29 15:26:50;;;;;;;7.97;1.98;;;15.70;61.80;;;;;;9187410;19;20030;-72
2022/05/29 15:29:58;;;;;;;7.47;1.65;;;15.70;61.10;;;;;;9188280;19;20049;-72
2022/05/29 15:33:07;;;;;;;8.82;1.58;;;15.70;61.00;;;;;;9187845;19;20666;-73
2022/05/29 15:36:18;;;;;;;11.80;1.70;;;15.70;61.00;;;;;;9189068;19;20014;-71
2022/05/29 15:39:35;;;;;;;6.78;2.17;;;15.70;61.10;;;;;;9188851;19;20018;-73
2022/05/29 15:42:47;;;;;;;8.40;1.25;;;15.70;61.10;;;;;;9187941;19;20006;-73
2022/05/29 15:46:16;;;;;;;3.42;1.20;;;15.70;61.10;;;;;;9187929;19;20494;-72
2022/05/29 15:50:02;;;;;;;5.75;1.25;;;15.70;61.00;;;;;;9187057;19;20022;-74
2022/05/29 15:53:48;;;;;;;4.05;1.30;;;15.60;60.90;;;;;;9186329;19;20061;-72
2022/05/29 15:57:02;;;;;;;14.18;1.38;;;15.60;61.00;;;;;;9185713;19;20011;-73
2022/05/29 16:00:10;;;;;;;6.47;1.38;;;15.60;61.00;;;;;;9188621;19;20015;-72
2022/05/29 16:03:18;;;;;;;6.82;1.80;;;15.60;61.00;;;;;;9186620;19;20019;-72
2022/05/29 16:06:27;;;;;;;5.88;1.13;;;15.50;61.00;;;;;;9186129;19;20018;-72
2022/05/29 16:09:49;;;;;;;6.65;1.55;;;15.50;61.10;;;;;;9187551;19;20018;-72
2022/05/29 16:12:57;;;;;;;8.18;1.73;;;15.50;60.90;;;;;;9186073;19;20037;-72
2022/05/29 16:16:16;;;;;;;7.05;1.83;;;15.40;60.90;;;;;;9183807;19;20019;-72
2022/05/29 16:19:49;;;;;;;13.02;2.00;;;15.40;60.90;;;;;;9186156;19;20090;-74
2022/05/29 16:23:10;;;;;;;6.50;1.00;;;15.40;61.00;;;;;;9180441;19;20492;-72
2022/05/29 16:26:18;;;;;;;4.90;0.85;;;15.40;61.00;;;;;;9187478;19;20013;-74
2022/05/29 16:29:30;;;;;;;13.00;1.95;;;15.40;61.10;;;;;;9185797;19;20369;-73
2022/05/29 16:32:42;;;;;;;6.53;2.03;;;15.30;61.10;;;;;;9186585;19;20102;-71
2022/05/29 16:35:53;;;;;;;9.48;1.92;;;15.30;61.10;;;;;;9184309;19;20018;-73
2022/05/29 16:49:29;;;;;;;7.93;1.35;;;14.90;61.60;;;;;;9186376;19;20018;-72
2022/05/29 16:52:37;;;;;;;9.63;1.75;;;14.90;61.70;;;;;;9185925;19;20518;-71
2022/05/29 16:55:49;;;;;;;9.85;1.92;;;14.90;61.70;;;;;;9177719;19;20025;-71
2022/05/29 16:58:58;;;;;;;40.88;18.90;;;14.80;61.60;;;;;;9171008;19;20016;-70
2022/05/29 17:02:21;;;;;;;63.55;27.27;;;14.80;61.70;;;;;;9173765;19;20018;-70
2022/05/29 17:05:30;;;;;;;13.15;4.10;;;14.70;61.70;;;;;;9168713;19;20023;-70
2022/05/29 17:08:41;;;;;;;9.25;2.22;;;14.70;61.70;;;;;;9169672;19;20021;-72
2022/05/29 17:11:47;;;;;;;18.63;1.55;;;14.70;61.70;;;;;;9177498;19;21101;-72
2022/05/29 17:14:58;;;;;;;11.40;1.58;;;14.60;61.70;;;;;;9178464;19;20030;-71
2022/05/29 17:18:04;;;;;;;12.55;2.30;;;14.60;61.70;;;;;;9182092;19;20494;-71
2022/05/29 17:21:14;;;;;;;7.10;1.75;;;14.50;61.70;;;;;;9177929;19;20019;-72
2022/05/29 17:24:33;;;;;;;8.38;1.80;;;14.50;61.70;;;;;;9180081;19;20014;-72
2022/05/29 17:27:45;;;;;;;5.35;1.50;;;14.50;61.80;;;;;;9182991;19;20081;-72
2022/05/29 17:30:58;;;;;;;6.60;1.88;;;14.40;61.80;;;;;;9181093;19;20026;-71
2022/05/29 17:34:06;;;;;;;4.18;1.02;;;14.40;61.70;;;;;;9183045;19;20014;-71
2022/05/29 17:37:18;;;;;;;5.53;1.10;;;14.40;61.70;;;;;;9177866;19;20025;-70